Time;durP1;ratioP1;P1;durP2;ratioP2;P2;SDS_P1;SDS_P2;PMS_P1;PMS_P2;Temp;Humidity;BMP_temperature;BMP_pressure;BME280_temperature;BME280_humidity;BME280_pressure;Samples;Min_cycle;Max_cycle;Signal;HPM_P1;HPM_P2
2023/02/27 00:02:00;;;;;;;11.52;5.88;;;0.70;99.90;;;;;;5085479;28;20355;-81
2023/02/27 00:04:27;;;;;;;9.43;5.80;;;0.60;99.90;;;;;;5100030;28;20202;-83
2023/02/27 00:06:55;;;;;;;10.93;5.63;;;0.60;99.90;;;;;;5099965;28;20244;-81
2023/02/27 00:09:21;;;;;;;10.80;5.40;;;0.60;99.90;;;;;;5094087;28;20252;-82
2023/02/27 00:11:48;;;;;;;8.32;5.47;;;0.70;99.90;;;;;;5100529;28;20212;-82
2023/02/27 00:14:15;;;;;;;10.90;6.13;;;0.70;99.90;;;;;;5101761;28;20202;-81
2023/02/27 00:16:43;;;;;;;7.90;5.05;;;0.70;99.90;;;;;;5098596;28;20198;-80
2023/02/27 00:19:10;;;;;;;8.65;5.72;;;0.60;99.90;;;;;;5118603;28;20212;-82
2023/02/27 00:21:37;;;;;;;7.65;5.55;;;0.60;99.90;;;;;;5102794;28;20234;-82
2023/02/27 00:24:04;;;;;;;12.98;5.50;;;0.60;99.90;;;;;;5103639;28;20527;-82
2023/02/27 00:26:31;;;;;;;8.40;5.50;;;0.70;99.90;;;;;;5097010;28;20513;-82
2023/02/27 00:28:58;;;;;;;7.55;4.30;;;0.70;99.90;;;;;;5094729;28;20237;-82
2023/02/27 00:31:25;;;;;;;14.77;4.95;;;0.70;99.90;;;;;;5100598;28;20240;-81
2023/02/27 00:33:52;;;;;;;13.00;5.55;;;0.70;99.90;;;;;;5091686;28;20632;-82
2023/02/27 00:36:19;;;;;;;11.93;6.32;;;0.70;99.90;;;;;;5095518;28;20206;-83
2023/02/27 00:38:47;;;;;;;12.82;7.55;;;0.60;99.90;;;;;;5099909;28;20290;-82
2023/02/27 00:41:13;;;;;;;8.95;6.00;;;0.70;99.90;;;;;;5094761;28;20211;-80
2023/02/27 00:43:40;;;;;;;8.95;5.05;;;0.70;99.90;;;;;;5092394;28;20230;-82
2023/02/27 00:46:09;;;;;;;7.88;5.60;;;0.70;99.90;;;;;;5096012;28;20207;-81
2023/02/27 00:48:36;;;;;;;11.23;6.20;;;0.70;99.90;;;;;;5100259;28;20207;-81
2023/02/27 00:51:03;;;;;;;13.73;5.78;;;0.70;99.90;;;;;;5091944;28;20247;-81
2023/02/27 00:53:30;;;;;;;9.82;5.60;;;0.70;99.90;;;;;;5101003;28;20544;-83
2023/02/27 00:55:58;;;;;;;11.07;4.85;;;0.60;99.90;;;;;;5100416;28;20387;-81
2023/02/27 00:58:24;;;;;;;9.63;6.40;;;0.70;99.90;;;;;;5097285;28;20205;-82
2023/02/27 01:00:51;;;;;;;8.48;5.35;;;0.70;99.90;;;;;;5101083;28;20239;-81
2023/02/27 01:03:19;;;;;;;8.48;5.25;;;0.60;99.90;;;;;;5096673;28;20239;-82
2023/02/27 01:05:46;;;;;;;15.63;5.95;;;0.70;99.90;;;;;;5093898;28;20202;-82
2023/02/27 01:08:13;;;;;;;15.77;5.75;;;0.60;99.90;;;;;;5095569;28;20207;-81
2023/02/27 01:10:40;;;;;;;10.18;5.38;;;0.60;99.90;;;;;;5092577;28;20230;-82
2023/02/27 01:13:06;;;;;;;11.68;4.85;;;0.60;99.90;;;;;;5080774;28;20455;-82
2023/02/27 01:15:36;;;;;;;9.13;5.20;;;0.50;99.90;;;;;;5094361;28;20198;-82
2023/02/27 01:18:03;;;;;;;13.63;5.00;;;0.60;99.90;;;;;;5091384;28;20194;-81
2023/02/27 01:20:30;;;;;;;7.03;4.90;;;0.60;99.90;;;;;;5094930;28;20195;-82
2023/02/27 01:22:57;;;;;;;9.25;5.20;;;0.40;99.90;;;;;;5092975;28;20229;-83
2023/02/27 01:25:24;;;;;;;7.55;5.45;;;0.50;99.90;;;;;;5094871;28;20224;-81
2023/02/27 01:27:51;;;;;;;12.65;6.32;;;0.50;99.90;;;;;;5080876;28;20203;-80
2023/02/27 01:30:18;;;;;;;8.35;4.28;;;0.50;99.90;;;;;;5094399;28;20218;-80
2023/02/27 01:32:45;;;;;;;10.32;4.93;;;0.60;99.90;;;;;;5093865;28;20259;-80
2023/02/27 01:35:12;;;;;;;9.60;8.32;;;0.60;99.90;;;;;;5095010;28;20217;-82
2023/02/27 01:37:39;;;;;;;10.85;6.90;;;0.60;99.90;;;;;;5092522;28;20460;-82
2023/02/27 01:40:07;;;;;;;8.25;4.45;;;0.60;99.90;;;;;;5097729;28;20564;-81
2023/02/27 01:42:34;;;;;;;7.07;5.05;;;0.50;99.90;;;;;;5093748;28;20391;-81
2023/02/27 01:45:24;;;;;;;14.45;5.60;;;0.60;99.90;;;;;;5097394;28;20210;-83
2023/02/27 01:47:55;;;;;;;12.40;5.40;;;0.50;99.90;;;;;;5093494;28;20210;-81
2023/02/27 01:50:23;;;;;;;13.20;6.28;;;0.50;99.90;;;;;;5096938;28;20248;-83
2023/02/27 01:52:57;;;;;;;6.35;4.30;;;0.50;99.90;;;;;;5091375;28;20206;-81
2023/02/27 01:55:28;;;;;;;10.48;4.93;;;0.50;99.90;;;;;;5088757;28;20218;-81
2023/02/27 01:57:55;;;;;;;10.57;4.55;;;0.50;99.90;;;;;;5097174;28;20210;-81
2023/02/27 02:00:23;;;;;;;11.25;6.25;;;0.50;99.90;;;;;;5079701;28;20206;-80
2023/02/27 02:03:05;;;;;;;12.23;5.05;;;0.40;99.90;;;;;;5098559;28;20218;-80
2023/02/27 02:05:32;;;;;;;8.77;4.93;;;0.50;99.90;;;;;;5086968;28;20215;-80
2023/02/27 02:08:00;;;;;;;14.65;5.65;;;0.60;99.90;;;;;;5097503;28;20206;-83
2023/02/27 02:10:28;;;;;;;12.68;5.53;;;0.50;99.90;;;;;;5097444;28;20202;-81
2023/02/27 02:12:55;;;;;;;8.40;5.47;;;0.40;99.90;;;;;;5097115;28;20387;-80
2023/02/27 02:15:30;;;;;;;11.30;4.65;;;0.50;99.90;;;;;;5092121;28;20206;-83
2023/02/27 02:18:18;;;;;;;9.57;4.38;;;0.40;99.90;;;;;;5077726;28;20189;-81
2023/02/27 02:21:26;;;;;;;9.27;4.07;;;0.30;99.90;;;;;;5095771;28;20421;-82
2023/02/27 02:24:12;;;;;;;5.40;3.75;;;0.40;99.90;;;;;;5092250;28;20230;-81
2023/02/27 02:27:04;;;;;;;8.68;4.35;;;0.40;99.90;;;;;;5084980;28;20606;-83
2023/02/27 02:30:07;;;;;;;9.80;4.72;;;0.40;99.90;;;;;;5088172;28;20255;-85
2023/02/27 02:32:42;;;;;;;7.63;3.75;;;0.40;99.90;;;;;;5090318;28;20210;-81
2023/02/27 02:35:41;;;;;;;10.10;4.60;;;0.50;99.90;;;;;;5097530;28;20466;-82
2023/02/27 02:38:35;;;;;;;6.40;4.00;;;0.40;99.90;;;;;;5108097;28;20194;-81
2023/02/27 02:41:21;;;;;;;7.68;4.13;;;0.50;99.90;;;;;;5116694;28;20196;-81
2023/02/27 02:43:57;;;;;;;6.85;4.20;;;0.50;99.90;;;;;;5110088;28;20217;-82
2023/02/27 02:46:48;;;;;;;7.65;3.60;;;0.60;99.90;;;;;;5111458;28;20312;-81
2023/02/27 02:49:30;;;;;;;6.60;4.00;;;0.60;99.90;;;;;;5093526;28;20436;-81
2023/02/27 02:52:08;;;;;;;8.13;4.47;;;0.50;99.90;;;;;;5097720;28;20437;-81
2023/02/27 02:54:44;;;;;;;7.45;4.50;;;0.50;99.90;;;;;;5093142;28;20239;-79
2023/02/27 02:57:22;;;;;;;7.18;4.30;;;0.40;99.90;;;;;;5096867;28;20251;-82
2023/02/27 03:00:11;;;;;;;10.80;4.60;;;0.50;99.90;;;;;;5093830;28;20202;-81
2023/02/27 03:02:54;;;;;;;7.47;4.40;;;0.50;99.90;;;;;;5089639;28;20247;-81
2023/02/27 03:05:37;;;;;;;7.03;3.55;;;0.40;99.90;;;;;;5092846;28;20204;-83
2023/02/27 03:08:10;;;;;;;7.43;4.10;;;0.50;99.90;;;;;;5089949;28;20197;-81
2023/02/27 03:10:53;;;;;;;7.13;5.03;;;0.50;99.90;;;;;;5097078;28;20207;-82
2023/02/27 03:13:29;;;;;;;5.97;3.92;;;0.50;99.90;;;;;;5088798;28;20214;-82
2023/02/27 03:16:11;;;;;;;6.55;3.92;;;0.50;99.90;;;;;;5091674;28;20509;-83
2023/02/27 03:18:55;;;;;;;8.80;4.53;;;0.40;99.90;;;;;;5092434;28;20637;-80
2023/02/27 03:21:33;;;;;;;6.30;3.78;;;0.50;99.90;;;;;;5097454;28;20421;-81
2023/02/27 03:24:04;;;;;;;5.00;3.05;;;0.50;99.90;;;;;;5079512;28;20226;-81
2023/02/27 03:26:37;;;;;;;6.45;2.80;;;0.50;99.90;;;;;;5078908;28;20206;-81
2023/02/27 03:29:13;;;;;;;4.53;3.47;;;0.60;99.90;;;;;;5079176;28;20243;-84
2023/02/27 03:31:55;;;;;;;5.70;4.10;;;0.50;99.90;;;;;;5082587;28;20206;-82
2023/02/27 03:34:32;;;;;;;5.82;3.30;;;0.40;99.90;;;;;;5094280;28;20269;-82
2023/02/27 03:37:17;;;;;;;4.18;3.42;;;0.40;99.90;;;;;;5089416;28;20429;-82
2023/02/27 03:39:52;;;;;;;7.15;3.35;;;0.40;99.90;;;;;;5089026;28;20202;-81
2023/02/27 03:42:31;;;;;;;7.10;3.30;;;0.40;99.90;;;;;;5084881;28;20231;-80
2023/02/27 03:45:22;;;;;;;7.10;3.75;;;0.40;99.90;;;;;;5115736;28;20186;-79
2023/02/27 03:47:49;;;;;;;4.32;3.00;;;0.30;99.90;;;;;;5084975;28;20402;-81
2023/02/27 03:50:19;;;;;;;5.13;3.55;;;0.40;99.90;;;;;;5096614;28;20464;-79
2023/02/27 03:52:45;;;;;;;10.50;6.20;;;0.40;99.90;;;;;;5097305;28;20450;-81
2023/02/27 03:55:16;;;;;;;4.13;3.67;;;0.40;99.90;;;;;;5078028;28;20218;-80
2023/02/27 03:57:45;;;;;;;6.65;2.88;;;0.30;99.90;;;;;;5096745;28;20248;-79
2023/02/27 04:00:19;;;;;;;10.18;4.35;;;0.30;99.90;;;;;;5096614;28;20468;-80
2023/02/27 04:02:51;;;;;;;5.38;3.03;;;0.30;99.90;;;;;;5076096;28;20217;-80
2023/02/27 04:05:19;;;;;;;10.57;3.58;;;0.30;99.90;;;;;;5075621;28;20218;-82
2023/02/27 04:08:03;;;;;;;6.78;3.20;;;0.40;99.90;;;;;;5096731;28;20683;-81
2023/02/27 04:10:57;;;;;;;7.55;2.55;;;0.40;99.90;;;;;;5095503;28;20518;-82
2023/02/27 04:13:33;;;;;;;11.82;3.75;;;0.40;99.90;;;;;;5090181;28;20211;-83
2023/02/27 04:16:38;;;;;;;4.43;2.88;;;0.30;99.90;;;;;;5093672;28;20244;-83
2023/02/27 04:19:32;;;;;;;7.68;4.43;;;0.30;99.90;;;;;;5092288;28;20213;-83
2023/02/27 04:22:31;;;;;;;7.88;3.60;;;0.40;99.90;;;;;;5096608;28;20405;-82
2023/02/27 04:25:13;;;;;;;4.55;3.80;;;0.30;99.90;;;;;;5070392;28;20248;-82
2023/02/27 04:28:18;;;;;;;4.13;2.85;;;0.30;99.90;;;;;;5091686;28;20210;-80
2023/02/27 04:30:55;;;;;;;9.48;3.92;;;0.30;99.90;;;;;;5099242;28;20201;-83
2023/02/27 04:33:42;;;;;;;6.53;3.10;;;0.20;99.90;;;;;;5081228;28;20238;-80
2023/02/27 04:36:25;;;;;;;6.90;3.80;;;0.20;99.90;;;;;;5089187;28;20206;-81
2023/02/27 04:39:12;;;;;;;7.13;4.43;;;0.30;99.90;;;;;;5095060;28;20301;-81
2023/02/27 04:42:27;;;;;;;6.47;4.25;;;0.30;99.90;;;;;;5084619;28;20705;-82
2023/02/27 04:44:59;;;;;;;8.35;4.28;;;0.30;99.90;;;;;;5081859;28;20240;-82
2023/02/27 04:47:32;;;;;;;5.93;3.65;;;0.20;99.90;;;;;;5093675;28;20241;-81
2023/02/27 04:50:10;;;;;;;5.07;3.38;;;0.20;99.90;;;;;;5100339;28;20213;-81
2023/02/27 04:52:46;;;;;;;10.55;3.53;;;0.20;99.90;;;;;;5100842;28;20243;-82
2023/02/27 04:55:27;;;;;;;5.50;3.55;;;0.20;99.90;;;;;;5096519;28;20213;-83
2023/02/27 04:58:16;;;;;;;8.20;3.28;;;0.30;99.90;;;;;;5096669;28;20218;-82
2023/02/27 05:00:47;;;;;;;8.70;4.25;;;0.30;99.90;;;;;;5076556;28;20202;-83
2023/02/27 05:03:23;;;;;;;7.40;3.20;;;0.20;99.90;;;;;;5091379;28;20218;-82
2023/02/27 05:05:54;;;;;;;5.18;3.92;;;0.20;99.90;;;;;;5094004;28;20410;-83
2023/02/27 05:08:28;;;;;;;6.68;3.55;;;0.20;99.90;;;;;;5097156;28;20206;-81
2023/02/27 05:11:32;;;;;;;8.88;3.22;;;0.10;99.90;;;;;;5081617;28;20202;-83
2023/02/27 05:14:09;;;;;;;5.43;3.70;;;0.20;99.90;;;;;;5085277;28;20212;-81
2023/02/27 05:16:57;;;;;;;4.97;3.25;;;0.30;99.90;;;;;;5098956;28;20698;-81
2023/02/27 05:19:24;;;;;;;8.65;3.53;;;0.30;99.90;;;;;;5099663;28;20203;-81
2023/02/27 05:22:20;;;;;;;10.15;4.97;;;0.30;99.90;;;;;;5098973;28;20571;-81
2023/02/27 05:25:02;;;;;;;3.75;3.45;;;0.40;99.90;;;;;;5085317;28;20218;-81
2023/02/27 05:27:46;;;;;;;9.63;3.30;;;0.40;99.90;;;;;;5077508;28;20232;-82
2023/02/27 05:30:34;;;;;;;8.90;4.07;;;0.40;99.90;;;;;;5075486;28;20224;-82
2023/02/27 05:33:17;;;;;;;5.57;3.38;;;0.40;99.90;;;;;;5094421;28;20214;-83
2023/02/27 05:36:00;;;;;;;7.95;4.70;;;0.40;99.90;;;;;;5094033;28;20202;-83
2023/02/27 05:38:40;;;;;;;7.45;3.25;;;0.30;99.90;;;;;;5094803;28;20211;-80
2023/02/27 05:41:26;;;;;;;3.67;2.88;;;0.30;99.90;;;;;;5087709;28;20435;-82
2023/02/27 05:44:02;;;;;;;7.88;4.32;;;0.20;99.90;;;;;;5093132;28;20236;-83
2023/02/27 05:46:34;;;;;;;7.82;4.78;;;0.30;99.90;;;;;;5091654;28;20210;-83
2023/02/27 05:49:37;;;;;;;6.90;3.35;;;0.20;99.90;;;;;;5098920;28;20289;-84
2023/02/27 05:52:09;;;;;;;5.07;3.50;;;0.20;99.90;;;;;;5088422;28;20239;-83
2023/02/27 05:54:45;;;;;;;7.00;4.22;;;0.30;99.90;;;;;;5079664;28;20241;-82
2023/02/27 05:57:18;;;;;;;4.90;3.15;;;0.30;99.90;;;;;;5104223;28;20228;-82
2023/02/27 06:00:03;;;;;;;6.25;4.03;;;0.30;99.90;;;;;;5101949;28;20203;-81
2023/02/27 06:02:31;;;;;;;8.00;4.03;;;0.50;99.90;;;;;;5099770;28;20501;-82
2023/02/27 06:04:57;;;;;;;5.80;3.60;;;0.30;99.90;;;;;;5092406;28;20237;-81
2023/02/27 06:07:24;;;;;;;5.78;3.60;;;0.20;99.90;;;;;;5094271;28;20270;-83
2023/02/27 06:09:52;;;;;;;6.95;4.53;;;0.20;99.90;;;;;;5092876;28;20210;-82
2023/02/27 06:12:19;;;;;;;6.43;3.85;;;0.30;99.90;;;;;;5096014;28;20210;-83
2023/02/27 06:14:46;;;;;;;9.48;4.50;;;0.30;99.90;;;;;;5093939;28;20244;-82
2023/02/27 06:17:13;;;;;;;8.70;3.95;;;0.30;99.90;;;;;;5095546;28;20210;-82
2023/02/27 06:19:40;;;;;;;7.38;3.90;;;0.30;99.90;;;;;;5097811;28;20244;-81
2023/02/27 06:22:10;;;;;;;10.38;4.40;;;0.20;99.90;;;;;;5081162;28;20213;-82
2023/02/27 06:24:38;;;;;;;6.05;3.90;;;0.30;99.90;;;;;;5097996;28;20284;-83
2023/02/27 06:27:05;;;;;;;9.60;5.03;;;0.40;99.90;;;;;;5093114;28;20496;-81
2023/02/27 06:29:32;;;;;;;3.50;2.72;;;0.40;99.90;;;;;;5095925;28;20470;-83
2023/02/27 06:31:59;;;;;;;7.70;3.60;;;0.50;99.90;;;;;;5096955;28;20206;-83
2023/02/27 06:34:26;;;;;;;9.73;4.50;;;0.50;99.90;;;;;;5097598;28;20218;-82
2023/02/27 06:36:53;;;;;;;7.95;3.55;;;0.40;99.90;;;;;;5098249;28;20206;-80
2023/02/27 06:39:20;;;;;;;5.32;3.78;;;0.60;99.90;;;;;;5096527;28;20520;-80
2023/02/27 06:41:46;;;;;;;5.20;3.42;;;0.60;99.90;;;;;;5089114;28;20198;-81
2023/02/27 06:44:14;;;;;;;5.03;3.70;;;0.70;99.90;;;;;;5101086;28;20278;-83
2023/02/27 06:46:41;;;;;;;7.93;3.72;;;0.90;99.90;;;;;;5063983;28;20256;-82
2023/02/27 06:49:08;;;;;;;7.00;5.25;;;0.80;99.90;;;;;;5094281;28;20268;-82
2023/02/27 06:51:36;;;;;;;7.53;3.60;;;0.70;99.90;;;;;;5093211;28;20211;-82
2023/02/27 06:54:02;;;;;;;3.42;2.78;;;0.70;99.90;;;;;;5095014;28;20398;-84
2023/02/27 06:56:29;;;;;;;6.40;3.78;;;0.80;99.90;;;;;;5095167;28;20301;-82
2023/02/27 06:58:56;;;;;;;5.72;3.67;;;0.80;99.90;;;;;;5073595;28;20216;-85
2023/02/27 07:01:25;;;;;;;4.43;3.47;;;0.90;99.90;;;;;;5098153;28;20213;-82
2023/02/27 07:03:52;;;;;;;6.97;4.00;;;0.70;99.90;;;;;;5097812;28;20222;-82
2023/02/27 07:06:19;;;;;;;6.82;4.07;;;0.70;99.90;;;;;;5093717;28;20658;-82
2023/02/27 07:08:54;;;;;;;5.97;3.45;;;0.80;99.90;;;;;;5105906;28;20713;-81
2023/02/27 07:11:32;;;;;;;8.98;4.63;;;0.90;99.90;;;;;;5094872;28;20191;-82
2023/02/27 07:13:59;;;;;;;6.75;3.75;;;1.00;99.90;;;;;;5108503;28;20220;-85
2023/02/27 07:16:26;;;;;;;5.38;3.97;;;1.20;99.90;;;;;;5116950;28;20198;-82
2023/02/27 07:18:53;;;;;;;5.68;3.95;;;1.20;99.90;;;;;;5107289;28;20201;-81
2023/02/27 07:21:20;;;;;;;6.30;4.10;;;1.20;99.90;;;;;;5111044;28;20224;-83
2023/02/27 07:23:48;;;;;;;14.23;4.45;;;1.20;99.90;;;;;;5081323;28;20284;-81
2023/02/27 07:26:15;;;;;;;4.82;3.88;;;1.20;99.90;;;;;;5100190;28;20198;-81
2023/02/27 07:28:42;;;;;;;5.63;3.58;;;1.00;99.90;;;;;;5094171;28;20331;-81
2023/02/27 07:31:09;;;;;;;7.43;3.90;;;1.10;99.90;;;;;;5076968;28;20210;-84
2023/02/27 07:33:36;;;;;;;8.98;3.55;;;1.10;99.90;;;;;;5069234;28;20496;-83
2023/02/27 07:36:03;;;;;;;5.90;3.50;;;1.10;99.90;;;;;;5088274;28;20208;-81
2023/02/27 07:38:31;;;;;;;4.28;3.58;;;1.20;99.90;;;;;;5091915;28;20266;-82
2023/02/27 07:40:58;;;;;;;8.50;4.10;;;1.10;99.90;;;;;;5092575;28;20209;-80
2023/02/27 07:43:25;;;;;;;7.75;4.30;;;1.10;99.90;;;;;;5078595;28;20230;-83
2023/02/27 07:45:52;;;;;;;7.78;3.95;;;1.00;99.90;;;;;;5098259;28;20514;-82
2023/02/27 07:48:19;;;;;;;7.05;4.00;;;1.10;99.90;;;;;;5088801;28;20364;-83
2023/02/27 07:50:46;;;;;;;7.35;4.13;;;1.10;99.90;;;;;;5088728;28;20202;-83
2023/02/27 07:53:13;;;;;;;5.70;3.75;;;1.20;99.90;;;;;;5087762;28;20208;-81
2023/02/27 07:55:39;;;;;;;8.32;3.80;;;1.30;99.90;;;;;;5080620;28;20202;-81
2023/02/27 07:58:06;;;;;;;6.53;4.13;;;1.30;99.90;;;;;;5099479;28;20211;-81
2023/02/27 08:00:33;;;;;;;5.03;3.60;;;1.30;99.90;;;;;;5080816;28;20198;-82
2023/02/27 08:03:00;;;;;;;7.50;4.25;;;1.30;99.90;;;;;;5097715;28;20246;-82
2023/02/27 08:05:29;;;;;;;5.88;3.55;;;1.20;99.90;;;;;;5094679;28;20445;-82
2023/02/27 08:07:56;;;;;;;4.25;3.85;;;1.20;99.90;;;;;;5078668;28;20245;-85
2023/02/27 08:10:23;;;;;;;6.85;3.53;;;1.20;99.90;;;;;;5102552;28;20213;-83
2023/02/27 08:12:51;;;;;;;4.35;2.80;;;1.60;99.90;;;;;;5093887;28;20214;-84
2023/02/27 08:15:18;;;;;;;5.68;3.80;;;1.50;99.90;;;;;;5080677;28;20205;-83
2023/02/27 08:17:45;;;;;;;4.72;3.45;;;1.70;99.90;;;;;;5099167;28;20272;-84
2023/02/27 08:20:13;;;;;;;6.68;4.10;;;1.60;99.90;;;;;;5104097;28;20265;-82
2023/02/27 08:22:41;;;;;;;4.90;3.72;;;1.60;99.90;;;;;;5094784;28;20202;-82
2023/02/27 08:25:10;;;;;;;8.43;4.65;;;1.60;99.90;;;;;;5084138;28;20231;-82
2023/02/27 08:27:38;;;;;;;5.68;3.47;;;1.60;99.90;;;;;;5103481;28;20233;-82
2023/02/27 08:30:07;;;;;;;4.22;3.55;;;1.70;99.90;;;;;;5083881;28;20213;-86
2023/02/27 08:32:35;;;;;;;4.32;3.25;;;1.70;99.90;;;;;;5100735;28;20422;-84
2023/02/27 08:35:02;;;;;;;4.45;2.92;;;1.80;99.90;;;;;;5093886;28;20209;-84
2023/02/27 08:37:30;;;;;;;3.70;3.40;;;1.70;99.90;;;;;;5080524;28;20274;-86
2023/02/27 08:39:56;;;;;;;7.60;4.15;;;2.10;99.90;;;;;;5082632;28;20216;-85
2023/02/27 08:42:24;;;;;;;3.67;2.90;;;2.30;99.90;;;;;;5099719;28;20229;-84
2023/02/27 08:44:52;;;;;;;7.07;3.70;;;2.50;99.90;;;;;;5096475;28;20223;-83
2023/02/27 08:47:19;;;;;;;5.20;3.75;;;2.60;99.90;;;;;;5101679;28;20223;-83
2023/02/27 08:49:46;;;;;;;4.07;2.78;;;2.70;99.90;;;;;;5100635;28;20322;-82
2023/02/27 08:52:14;;;;;;;5.50;2.95;;;2.80;99.90;;;;;;5099433;28;20214;-83
2023/02/27 08:54:41;;;;;;;6.00;3.53;;;2.90;99.90;;;;;;5082277;28;20207;-84
2023/02/27 08:57:08;;;;;;;10.38;3.20;;;2.70;99.90;;;;;;5094179;28;20224;-83
2023/02/27 08:59:35;;;;;;;12.27;3.72;;;2.90;99.90;;;;;;5097494;28;20278;-83
2023/02/27 09:02:02;;;;;;;6.00;2.80;;;3.30;99.90;;;;;;5098815;28;20215;-83
2023/02/27 09:04:28;;;;;;;5.35;3.17;;;3.10;99.90;;;;;;5074107;28;20547;-83
2023/02/27 09:06:56;;;;;;;4.68;3.08;;;3.00;99.90;;;;;;5093007;28;20250;-83
2023/02/27 09:09:23;;;;;;;9.88;3.38;;;3.10;99.90;;;;;;5092038;28;20199;-83
2023/02/27 09:11:50;;;;;;;5.22;3.03;;;3.10;99.90;;;;;;5096229;28;20434;-84
2023/02/27 09:14:18;;;;;;;6.20;3.47;;;3.40;99.90;;;;;;5082468;28;20254;-85
2023/02/27 09:16:45;;;;;;;5.47;3.50;;;3.30;99.90;;;;;;5099701;28;20213;-82
2023/02/27 09:19:13;;;;;;;6.78;2.85;;;3.20;99.90;;;;;;5099302;28;20226;-82
2023/02/27 09:21:41;;;;;;;4.85;2.67;;;3.50;99.90;;;;;;5096038;28;20402;-83
2023/02/27 09:24:08;;;;;;;2.85;2.42;;;4.00;99.90;;;;;;5073804;28;20232;-83
2023/02/27 09:26:45;;;;;;;4.13;3.25;;;4.50;99.90;;;;;;5082822;28;20407;-83
2023/02/27 09:29:13;;;;;;;5.28;3.20;;;4.90;99.90;;;;;;5091287;28;20441;-83
2023/02/27 09:31:40;;;;;;;4.68;2.45;;;5.10;99.90;;;;;;5097462;28;20727;-83
2023/02/27 09:34:06;;;;;;;3.08;1.88;;;5.20;99.90;;;;;;5095968;28;20308;-83
2023/02/27 09:36:34;;;;;;;2.28;1.75;;;5.00;99.90;;;;;;5094520;28;20208;-83
2023/02/27 09:39:01;;;;;;;6.32;1.83;;;4.60;99.90;;;;;;5096292;28;20202;-82
2023/02/27 09:41:43;;;;;;;2.90;2.22;;;4.00;99.90;;;;;;5094048;28;20205;-83
2023/02/27 09:44:33;;;;;;;2.97;2.25;;;3.90;99.90;;;;;;5091493;28;20229;-85
2023/02/27 09:47:22;;;;;;;3.75;3.13;;;4.10;99.90;;;;;;5078380;28;20254;-85
2023/02/27 09:49:58;;;;;;;9.35;3.03;;;3.90;99.90;;;;;;5097037;28;20312;-85
2023/02/27 09:52:26;;;;;;;4.68;3.13;;;3.80;99.90;;;;;;5094431;28;20208;-84
2023/02/27 09:54:54;;;;;;;8.15;3.63;;;4.00;99.90;;;;;;5074993;28;20220;-83
2023/02/27 09:57:55;;;;;;;4.18;2.97;;;4.10;99.90;;;;;;5078291;28;20241;-83
2023/02/27 10:00:43;;;;;;;3.83;3.28;;;3.90;99.90;;;;;;5063112;28;20231;-86
2023/02/27 10:03:46;;;;;;;2.65;2.38;;;4.00;99.90;;;;;;5079732;28;20235;-82
2023/02/27 10:06:51;;;;;;;5.78;2.20;;;4.10;99.90;;;;;;5075512;28;20222;-85
2023/02/27 10:09:48;;;;;;;3.03;2.38;;;4.00;99.90;;;;;;5098770;28;20223;-85
2023/02/27 10:12:53;;;;;;;10.27;3.78;;;3.80;99.90;;;;;;5074979;28;20287;-85
2023/02/27 10:15:36;;;;;;;9.23;1.98;;;4.00;99.90;;;;;;5085527;28;20201;-85
2023/02/27 10:18:18;;;;;;;4.10;2.55;;;4.00;99.90;;;;;;5098386;28;20533;-86
2023/02/27 10:20:57;;;;;;;4.82;2.85;;;3.80;99.90;;;;;;5092119;28;20214;-85
2023/02/27 10:23:52;;;;;;;3.75;2.63;;;3.90;99.90;;;;;;5097538;28;20206;-83
2023/02/27 10:26:23;;;;;;;4.40;2.63;;;3.70;99.90;;;;;;5091362;28;20210;-82
2023/02/27 10:28:50;;;;;;;11.50;2.95;;;3.80;99.90;;;;;;5096027;28;20197;-83
2023/02/27 10:31:26;;;;;;;3.70;3.17;;;3.90;99.90;;;;;;5095110;28;20481;-84
2023/02/27 10:33:55;;;;;;;3.67;2.30;;;4.10;99.90;;;;;;5090567;28;20576;-84
2023/02/27 10:36:23;;;;;;;5.90;3.28;;;4.20;99.90;;;;;;5104407;28;20204;-83
2023/02/27 10:39:14;;;;;;;5.38;2.30;;;4.30;99.90;;;;;;5115662;28;20264;-83
2023/02/27 10:41:44;;;;;;;8.60;2.90;;;4.20;99.90;;;;;;5102313;28;20202;-83
2023/02/27 10:44:15;;;;;;;3.92;2.92;;;4.00;99.90;;;;;;5095379;28;20533;-83
2023/02/27 10:46:42;;;;;;;6.38;3.63;;;4.00;99.90;;;;;;5078548;28;20590;-84
2023/02/27 10:49:20;;;;;;;4.80;3.00;;;4.30;99.90;;;;;;5096629;28;20359;-82
2023/02/27 10:52:10;;;;;;;4.00;3.30;;;4.30;99.90;;;;;;5091164;28;20522;-82
2023/02/27 10:54:38;;;;;;;3.78;3.13;;;4.50;99.90;;;;;;5094240;28;20186;-84
2023/02/27 10:57:32;;;;;;;7.97;4.20;;;4.50;99.90;;;;;;5105793;28;20222;-83
2023/02/27 11:00:04;;;;;;;6.07;3.95;;;4.50;99.90;;;;;;5072628;28;20509;-82
2023/02/27 11:02:40;;;;;;;7.47;3.75;;;4.50;99.90;;;;;;5100282;28;20274;-82
2023/02/27 11:05:30;;;;;;;2.92;2.13;;;4.60;99.90;;;;;;5090742;28;20222;-82
2023/02/27 11:08:19;;;;;;;2.10;1.90;;;4.80;99.90;;;;;;5080174;28;20205;-82
2023/02/27 11:10:57;;;;;;;5.82;3.08;;;4.80;99.90;;;;;;5093728;28;20207;-83
2023/02/27 11:13:26;;;;;;;5.25;2.35;;;5.00;99.90;;;;;;5086401;28;20198;-82
2023/02/27 11:16:01;;;;;;;5.97;2.55;;;5.10;99.90;;;;;;5102921;28;20259;-81
2023/02/27 11:18:29;;;;;;;5.82;2.50;;;4.70;99.90;;;;;;5093236;28;20203;-82
2023/02/27 11:21:16;;;;;;;2.55;1.60;;;4.70;99.90;;;;;;5092327;28;20293;-81
2023/02/27 11:24:01;;;;;;;2.40;2.22;;;4.90;99.90;;;;;;5092307;28;20205;-82
2023/02/27 11:26:33;;;;;;;4.97;2.25;;;5.00;99.90;;;;;;5093361;28;20497;-81
2023/02/27 11:29:13;;;;;;;3.53;2.13;;;5.00;99.90;;;;;;5094190;28;20695;-83
2023/02/27 11:31:53;;;;;;;2.22;2.05;;;4.90;99.90;;;;;;5096716;28;20209;-81
2023/02/27 11:34:49;;;;;;;5.40;3.25;;;4.80;99.90;;;;;;5094309;28;20225;-83
2023/02/27 11:37:25;;;;;;;4.18;2.70;;;4.80;99.90;;;;;;5091208;28;20202;-82
2023/02/27 11:40:13;;;;;;;5.38;3.20;;;5.30;99.90;;;;;;5092519;28;20736;-79
2023/02/27 11:42:51;;;;;;;5.25;2.15;;;5.20;99.90;;;;;;5078470;28;20194;-83
2023/02/27 11:45:28;;;;;;;7.63;4.00;;;4.80;99.90;;;;;;5089410;28;20233;-82
2023/02/27 11:48:27;;;;;;;4.90;2.72;;;4.50;99.90;;;;;;5096212;28;20236;-81
2023/02/27 11:51:46;;;;;;;2.75;2.22;;;4.50;99.90;;;;;;5102300;28;20198;-81
2023/02/27 11:54:27;;;;;;;4.93;2.50;;;4.60;99.90;;;;;;5115721;28;20263;-81
2023/02/27 11:57:05;;;;;;;1.65;1.10;;;4.70;99.90;;;;;;5125853;28;20227;-83
2023/02/27 11:59:43;;;;;;;3.38;2.13;;;4.90;99.90;;;;;;5118175;28;20193;-80
2023/02/27 12:02:41;;;;;;;3.65;2.22;;;4.70;99.90;;;;;;5098187;28;20258;-81
2023/02/27 12:05:21;;;;;;;2.70;2.15;;;4.70;99.90;;;;;;5079333;28;20230;-80
2023/02/27 12:07:56;;;;;;;2.45;1.52;;;4.80;99.90;;;;;;5102254;28;20541;-81
2023/02/27 12:10:30;;;;;;;9.32;2.40;;;4.60;99.90;;;;;;5100069;28;20206;-81
2023/02/27 12:13:01;;;;;;;3.83;2.53;;;4.40;99.90;;;;;;5100139;28;20555;-79
2023/02/27 12:15:43;;;;;;;9.80;2.92;;;4.30;99.90;;;;;;5092126;28;20210;-80
2023/02/27 12:18:15;;;;;;;5.60;3.47;;;4.00;99.90;;;;;;5075858;28;20209;-80
2023/02/27 12:20:53;;;;;;;3.55;2.75;;;3.70;99.90;;;;;;5096849;28;20506;-79
2023/02/27 12:23:48;;;;;;;3.33;2.30;;;3.80;99.90;;;;;;5089651;28;20250;-79
2023/02/27 12:26:24;;;;;;;2.35;1.90;;;3.70;99.90;;;;;;5064811;28;20594;-80
2023/02/27 12:28:58;;;;;;;2.55;1.80;;;3.60;99.90;;;;;;5077052;28;20722;-79
2023/02/27 12:31:40;;;;;;;3.45;2.30;;;3.60;99.90;;;;;;5093579;28;20205;-80
2023/02/27 12:34:13;;;;;;;3.08;2.13;;;3.20;99.90;;;;;;5095335;28;20275;-79
2023/02/27 12:36:40;;;;;;;5.22;2.55;;;3.10;99.90;;;;;;5099024;28;20673;-80
2023/02/27 12:39:28;;;;;;;7.00;3.25;;;3.10;99.90;;;;;;5073927;28;20209;-80
2023/02/27 12:42:16;;;;;;;4.93;3.42;;;3.40;99.90;;;;;;5079614;28;20680;-80
2023/02/27 12:45:12;;;;;;;5.55;3.70;;;3.70;99.90;;;;;;5096045;28;20232;-82
2023/02/27 12:48:03;;;;;;;7.75;3.83;;;3.80;99.90;;;;;;5096735;28;20259;-80
2023/02/27 12:51:09;;;;;;;5.32;4.18;;;3.70;99.90;;;;;;5091162;28;20202;-80
2023/02/27 12:54:02;;;;;;;7.32;4.95;;;3.80;99.90;;;;;;5092931;28;20202;-81
2023/02/27 12:56:43;;;;;;;7.57;5.47;;;3.90;99.90;;;;;;5094462;28;20280;-82
2023/02/27 12:59:44;;;;;;;8.80;4.93;;;3.70;99.90;;;;;;5076540;28;20563;-81
2023/02/27 13:02:35;;;;;;;4.38;3.97;;;3.40;99.90;;;;;;5083919;28;20232;-79
2023/02/27 13:05:26;;;;;;;10.70;6.05;;;3.40;99.90;;;;;;5087148;28;20571;-80
2023/02/27 13:08:08;;;;;;;7.90;5.15;;;3.20;99.90;;;;;;5093790;28;20214;-81
2023/02/27 13:10:43;;;;;;;4.82;4.05;;;3.00;99.90;;;;;;5098915;28;20263;-81
2023/02/27 13:13:16;;;;;;;7.93;4.25;;;3.00;99.90;;;;;;5095520;28;20209;-80
2023/02/27 13:15:52;;;;;;;6.88;4.03;;;3.00;99.90;;;;;;5091093;28;20509;-79
2023/02/27 13:18:44;;;;;;;6.70;4.95;;;3.10;99.90;;;;;;5094487;28;20282;-80
2023/02/27 13:21:19;;;;;;;8.63;3.50;;;3.40;99.90;;;;;;5077353;28;20209;-80
2023/02/27 13:23:57;;;;;;;10.15;5.10;;;3.30;99.90;;;;;;5092667;28;20688;-80
2023/02/27 13:26:33;;;;;;;5.63;3.60;;;3.40;99.90;;;;;;5099064;28;20245;-79
2023/02/27 13:29:00;;;;;;;10.52;4.10;;;3.30;99.90;;;;;;5091760;28;20205;-78
2023/02/27 13:31:49;;;;;;;5.55;2.35;;;3.50;99.90;;;;;;5092252;28;20254;-79
2023/02/27 13:34:33;;;;;;;2.65;1.70;;;3.40;99.90;;;;;;5102065;28;20200;-81
2023/02/27 13:37:04;;;;;;;5.65;2.80;;;3.30;99.90;;;;;;5103766;28;20246;-79
2023/02/27 13:39:47;;;;;;;4.78;3.60;;;3.50;99.90;;;;;;5078688;28;20209;-80